sensor_id;sensor_type;location;lat;lon;timestamp;pressure;altitude;pressure_sealevel;temperature
22828;BMP180;11580;52.562;13.418;2023-05-10T00:00:51;100387.00;;;15.60
22828;BMP180;11580;52.562;13.418;2023-05-10T00:03:18;100390.00;;;15.40
22828;BMP180;11580;52.562;13.418;2023-05-10T00:05:46;100390.00;;;15.50
22828;BMP180;11580;52.562;13.418;2023-05-10T00:08:13;100396.00;;;15.50
22828;BMP180;11580;52.562;13.418;2023-05-10T00:10:40;100384.00;;;15.50
22828;BMP180;11580;52.562;13.418;2023-05-10T00:13:07;100388.00;;;15.40
22828;BMP180;11580;52.562;13.418;2023-05-10T00:15:36;100387.00;;;15.40
22828;BMP180;11580;52.562;13.418;2023-05-10T00:18:03;100384.00;;;15.30
22828;BMP180;11580;52.562;13.418;2023-05-10T00:20:30;100377.00;;;15.30
22828;BMP180;11580;52.562;13.418;2023-05-10T00:22:57;100377.00;;;15.30
22828;BMP180;11580;52.562;13.418;2023-05-10T00:25:25;100361.00;;;15.20
22828;BMP180;11580;52.562;13.418;2023-05-10T00:27:52;100361.00;;;15.20
22828;BMP180;11580;52.562;13.418;2023-05-10T00:30:21;100361.00;;;15.10
22828;BMP180;11580;52.562;13.418;2023-05-10T00:32:49;100358.00;;;15.10
22828;BMP180;11580;52.562;13.418;2023-05-10T00:35:17;100356.00;;;15.10
22828;BMP180;11580;52.562;13.418;2023-05-10T00:37:44;100349.00;;;15.10
22828;BMP180;11580;52.562;13.418;2023-05-10T00:40:12;100344.00;;;15.00
22828;BMP180;11580;52.562;13.418;2023-05-10T00:42:42;100350.00;;;15.00
22828;BMP180;11580;52.562;13.418;2023-05-10T00:45:09;100343.00;;;15.00
22828;BMP180;11580;52.562;13.418;2023-05-10T00:47:37;100337.00;;;14.90
22828;BMP180;11580;52.562;13.418;2023-05-10T00:50:07;100337.00;;;14.90
22828;BMP180;11580;52.562;13.418;2023-05-10T00:52:35;100337.00;;;14.90
22828;BMP180;11580;52.562;13.418;2023-05-10T00:55:03;100338.00;;;14.90
22828;BMP180;11580;52.562;13.418;2023-05-10T00:57:31;100341.00;;;14.80
22828;BMP180;11580;52.562;13.418;2023-05-10T00:59:59;100325.00;;;14.60
22828;BMP180;11580;52.562;13.418;2023-05-10T01:02:27;100319.00;;;14.80
22828;BMP180;11580;52.562;13.418;2023-05-10T01:04:54;100325.00;;;14.80
22828;BMP180;11580;52.562;13.418;2023-05-10T01:07:24;100326.00;;;14.80
22828;BMP180;11580;52.562;13.418;2023-05-10T01:09:51;100323.00;;;14.70
22828;BMP180;11580;52.562;13.418;2023-05-10T01:12:18;100321.00;;;14.70
22828;BMP180;11580;52.562;13.418;2023-05-10T01:14:46;100319.00;;;14.70
22828;BMP180;11580;52.562;13.418;2023-05-10T01:17:13;100312.00;;;14.60
22828;BMP180;11580;52.562;13.418;2023-05-10T01:19:42;100311.00;;;14.60
22828;BMP180;11580;52.562;13.418;2023-05-10T01:22:39;100306.00;;;14.60
22828;BMP180;11580;52.562;13.418;2023-05-10T01:25:30;100300.00;;;14.60
22828;BMP180;11580;52.562;13.418;2023-05-10T01:28:37;100302.00;;;14.50
22828;BMP180;11580;52.562;13.418;2023-05-10T01:31:33;100300.00;;;14.50
22828;BMP180;11580;52.562;13.418;2023-05-10T01:34:13;100302.00;;;14.40
22828;BMP180;11580;52.562;13.418;2023-05-10T01:36:58;100295.00;;;14.40
22828;BMP180;11580;52.562;13.418;2023-05-10T01:39:39;100303.00;;;14.40
22828;BMP180;11580;52.562;13.418;2023-05-10T01:42:17;100292.00;;;14.40
22828;BMP180;11580;52.562;13.418;2023-05-10T01:45:03;100294.00;;;14.40
22828;BMP180;11580;52.562;13.418;2023-05-10T01:47:40;100299.00;;;14.30
22828;BMP180;11580;52.562;13.418;2023-05-10T01:50:15;100293.00;;;14.30
22828;BMP180;11580;52.562;13.418;2023-05-10T01:52:49;100289.00;;;14.30
22828;BMP180;11580;52.562;13.418;2023-05-10T01:55:22;100280.00;;;14.30
22828;BMP180;11580;52.562;13.418;2023-05-10T01:58:01;100288.00;;;14.30
22828;BMP180;11580;52.562;13.418;2023-05-10T02:00:30;100280.00;;;14.20
22828;BMP180;11580;52.562;13.418;2023-05-10T02:03:01;100288.00;;;14.20
22828;BMP180;11580;52.562;13.418;2023-05-10T02:05:33;100288.00;;;14.20
22828;BMP180;11580;52.562;13.418;2023-05-10T02:08:03;100289.00;;;14.20
22828;BMP180;11580;52.562;13.418;2023-05-10T02:10:32;100284.00;;;14.20
22828;BMP180;11580;52.562;13.418;2023-05-10T02:13:03;100278.00;;;14.20
22828;BMP180;11580;52.562;13.418;2023-05-10T02:15:30;100286.00;;;14.20
22828;BMP180;11580;52.562;13.418;2023-05-10T02:18:00;100291.00;;;14.10
22828;BMP180;11580;52.562;13.418;2023-05-10T02:20:28;100281.00;;;14.10
22828;BMP180;11580;52.562;13.418;2023-05-10T02:22:58;100278.00;;;14.10
22828;BMP180;11580;52.562;13.418;2023-05-10T02:25:28;100272.00;;;14.10
22828;BMP180;11580;52.562;13.418;2023-05-10T02:27:58;100280.00;;;14.10
22828;BMP180;11580;52.562;13.418;2023-05-10T02:30:27;100267.00;;;13.80
22828;BMP180;11580;52.562;13.418;2023-05-10T02:32:56;100271.00;;;14.10
22828;BMP180;11580;52.562;13.418;2023-05-10T02:35:26;100262.00;;;14.10
22828;BMP180;11580;52.562;13.418;2023-05-10T02:37:55;100256.00;;;14.00
22828;BMP180;11580;52.562;13.418;2023-05-10T02:40:27;100267.00;;;14.00
22828;BMP180;11580;52.562;13.418;2023-05-10T02:42:57;100271.00;;;14.00
22828;BMP180;11580;52.562;13.418;2023-05-10T02:45:30;100266.00;;;14.00
22828;BMP180;11580;52.562;13.418;2023-05-10T02:47:58;100267.00;;;14.00
22828;BMP180;11580;52.562;13.418;2023-05-10T02:50:28;100265.00;;;13.90
22828;BMP180;11580;52.562;13.418;2023-05-10T02:53:03;100265.00;;;14.00
22828;BMP180;11580;52.562;13.418;2023-05-10T02:55:39;100258.00;;;13.90
22828;BMP180;11580;52.562;13.418;2023-05-10T02:58:07;100268.00;;;13.90
22828;BMP180;11580;52.562;13.418;2023-05-10T03:00:34;100267.00;;;13.90
22828;BMP180;11580;52.562;13.418;2023-05-10T03:03:02;100269.00;;;13.90
22828;BMP180;11580;52.562;13.418;2023-05-10T03:05:29;100269.00;;;13.80
22828;BMP180;11580;52.562;13.418;2023-05-10T03:08:00;100271.00;;;13.80
22828;BMP180;11580;52.562;13.418;2023-05-10T03:10:32;100274.00;;;13.80
22828;BMP180;11580;52.562;13.418;2023-05-10T03:13:24;100266.00;;;13.80
22828;BMP180;11580;52.562;13.418;2023-05-10T03:15:59;100270.00;;;13.80
22828;BMP180;11580;52.562;13.418;2023-05-10T03:18:40;100261.00;;;13.80
22828;BMP180;11580;52.562;13.418;2023-05-10T03:21:11;100259.00;;;13.80
22828;BMP180;11580;52.562;13.418;2023-05-10T03:23:46;100271.00;;;13.80
22828;BMP180;11580;52.562;13.418;2023-05-10T03:26:21;100264.00;;;13.80
22828;BMP180;11580;52.562;13.418;2023-05-10T03:28:55;100252.00;;;13.90
22828;BMP180;11580;52.562;13.418;2023-05-10T03:31:25;100254.00;;;14.00
22828;BMP180;11580;52.562;13.418;2023-05-10T03:33:53;100267.00;;;14.20
22828;BMP180;11580;52.562;13.418;2023-05-10T03:36:24;100261.00;;;14.40
22828;BMP180;11580;52.562;13.418;2023-05-10T03:38:51;100248.00;;;14.60
22828;BMP180;11580;52.562;13.418;2023-05-10T03:41:18;100267.00;;;14.90
22828;BMP180;11580;52.562;13.418;2023-05-10T03:43:47;100257.00;;;15.20
22828;BMP180;11580;52.562;13.418;2023-05-10T03:46:15;100265.00;;;15.60
22828;BMP180;11580;52.562;13.418;2023-05-10T03:48:43;100266.00;;;15.90
22828;BMP180;11580;52.562;13.418;2023-05-10T03:51:10;100262.00;;;16.30
22828;BMP180;11580;52.562;13.418;2023-05-10T03:53:39;100268.00;;;16.80
22828;BMP180;11580;52.562;13.418;2023-05-10T03:56:06;100260.00;;;17.20
22828;BMP180;11580;52.562;13.418;2023-05-10T03:58:34;100274.00;;;17.70
22828;BMP180;11580;52.562;13.418;2023-05-10T04:01:01;100273.00;;;18.10
22828;BMP180;11580;52.562;13.418;2023-05-10T04:03:30;100275.00;;;18.60
22828;BMP180;11580;52.562;13.418;2023-05-10T04:06:01;100278.00;;;19.00
22828;BMP180;11580;52.562;13.418;2023-05-10T04:08:28;100280.00;;;19.50
22828;BMP180;11580;52.562;13.418;2023-05-10T04:11:05;100285.00;;;19.90
22828;BMP180;11580;52.562;13.418;2023-05-10T04:13:33;100289.00;;;20.40
22828;BMP180;11580;52.562;13.418;2023-05-10T04:16:00;100271.00;;;20.80
22828;BMP180;11580;52.562;13.418;2023-05-10T04:18:29;100292.00;;;21.10
22828;BMP180;11580;52.562;13.418;2023-05-10T04:20:57;100285.00;;;21.50
22828;BMP180;11580;52.562;13.418;2023-05-10T04:23:24;100278.00;;;21.70
22828;BMP180;11580;52.562;13.418;2023-05-10T04:25:51;100279.00;;;21.90
22828;BMP180;11580;52.562;13.418;2023-05-10T04:28:18;100283.00;;;22.10
22828;BMP180;11580;52.562;13.418;2023-05-10T04:30:46;100285.00;;;22.30
22828;BMP180;11580;52.562;13.418;2023-05-10T04:33:13;100282.00;;;22.40
22828;BMP180;11580;52.562;13.418;2023-05-10T04:35:42;100284.00;;;22.40
22828;BMP180;11580;52.562;13.418;2023-05-10T04:38:10;100288.00;;;22.40
22828;BMP180;11580;52.562;13.418;2023-05-10T04:40:37;100294.00;;;22.40
22828;BMP180;11580;52.562;13.418;2023-05-10T04:43:04;100282.00;;;22.20
22828;BMP180;11580;52.562;13.418;2023-05-10T04:45:31;100283.00;;;22.00
22828;BMP180;11580;52.562;13.418;2023-05-10T04:47:58;100280.00;;;21.80
22828;BMP180;11580;52.562;13.418;2023-05-10T04:50:26;100280.00;;;21.50
22828;BMP180;11580;52.562;13.418;2023-05-10T04:52:54;100274.00;;;21.20
22828;BMP180;11580;52.562;13.418;2023-05-10T04:55:21;100274.00;;;20.90
22828;BMP180;11580;52.562;13.418;2023-05-10T04:57:49;100271.00;;;20.60
22828;BMP180;11580;52.562;13.418;2023-05-10T05:00:16;100274.00;;;20.30
22828;BMP180;11580;52.562;13.418;2023-05-10T05:02:44;100258.00;;;20.10
22828;BMP180;11580;52.562;13.418;2023-05-10T05:05:12;100261.00;;;19.80
22828;BMP180;11580;52.562;13.418;2023-05-10T05:07:39;100265.00;;;19.60
22828;BMP180;11580;52.562;13.418;2023-05-10T05:10:09;100268.00;;;19.40
22828;BMP180;11580;52.562;13.418;2023-05-10T05:12:36;100268.00;;;19.20
22828;BMP180;11580;52.562;13.418;2023-05-10T05:15:04;100275.00;;;19.10
22828;BMP180;11580;52.562;13.418;2023-05-10T05:17:31;100268.00;;;18.90
22828;BMP180;11580;52.562;13.418;2023-05-10T05:19:58;100262.00;;;18.80
22828;BMP180;11580;52.562;13.418;2023-05-10T05:22:25;100266.00;;;18.70
22828;BMP180;11580;52.562;13.418;2023-05-10T05:24:53;100253.00;;;18.50
22828;BMP180;11580;52.562;13.418;2023-05-10T05:27:22;100230.00;;;18.40
22828;BMP180;11580;52.562;13.418;2023-05-10T05:29:53;100259.00;;;18.40
22828;BMP180;11580;52.562;13.418;2023-05-10T05:32:20;100260.00;;;18.30
22828;BMP180;11580;52.562;13.418;2023-05-10T05:34:47;100256.00;;;18.20
22828;BMP180;11580;52.562;13.418;2023-05-10T05:37:15;100252.00;;;18.20
22828;BMP180;11580;52.562;13.418;2023-05-10T05:39:43;100253.00;;;18.10
22828;BMP180;11580;52.562;13.418;2023-05-10T05:42:12;100251.00;;;18.10
22828;BMP180;11580;52.562;13.418;2023-05-10T05:44:40;100251.00;;;18.00
22828;BMP180;11580;52.562;13.418;2023-05-10T05:47:08;100240.00;;;18.00
22828;BMP180;11580;52.562;13.418;2023-05-10T05:49:35;100256.00;;;17.90
22828;BMP180;11580;52.562;13.418;2023-05-10T05:52:03;100241.00;;;17.80
22828;BMP180;11580;52.562;13.418;2023-05-10T05:54:31;100235.00;;;17.80
22828;BMP180;11580;52.562;13.418;2023-05-10T05:56:59;100242.00;;;17.80
22828;BMP180;11580;52.562;13.418;2023-05-10T05:59:27;100244.00;;;17.80
22828;BMP180;11580;52.562;13.418;2023-05-10T06:01:56;100242.00;;;17.80
22828;BMP180;11580;52.562;13.418;2023-05-10T06:04:23;100242.00;;;17.80
22828;BMP180;11580;52.562;13.418;2023-05-10T06:06:50;100243.00;;;17.80
22828;BMP180;11580;52.562;13.418;2023-05-10T06:09:17;100242.00;;;17.80
22828;BMP180;11580;52.562;13.418;2023-05-10T06:11:44;100240.00;;;17.80
22828;BMP180;11580;52.562;13.418;2023-05-10T06:14:12;100247.00;;;17.80
22828;BMP180;11580;52.562;13.418;2023-05-10T06:16:39;100251.00;;;17.80
22828;BMP180;11580;52.562;13.418;2023-05-10T06:19:07;100250.00;;;17.90
22828;BMP180;11580;52.562;13.418;2023-05-10T06:21:35;100241.00;;;17.90
22828;BMP180;11580;52.562;13.418;2023-05-10T06:24:02;100239.00;;;18.00
22828;BMP180;11580;52.562;13.418;2023-05-10T06:26:29;100248.00;;;18.00
22828;BMP180;11580;52.562;13.418;2023-05-10T06:28:56;100249.00;;;18.10
22828;BMP180;11580;52.562;13.418;2023-05-10T06:31:23;100235.00;;;18.10
22828;BMP180;11580;52.562;13.418;2023-05-10T06:33:51;100246.00;;;18.20
22828;BMP180;11580;52.562;13.418;2023-05-10T06:36:19;100245.00;;;18.20
22828;BMP180;11580;52.562;13.418;2023-05-10T06:38:47;100254.00;;;18.30
22828;BMP180;11580;52.562;13.418;2023-05-10T06:41:14;100248.00;;;18.40
22828;BMP180;11580;52.562;13.418;2023-05-10T06:43:42;100249.00;;;18.50
22828;BMP180;11580;52.562;13.418;2023-05-10T06:46:09;100250.00;;;18.50
22828;BMP180;11580;52.562;13.418;2023-05-10T06:48:36;100241.00;;;18.60
22828;BMP180;11580;52.562;13.418;2023-05-10T06:51:03;100256.00;;;18.60
22828;BMP180;11580;52.562;13.418;2023-05-10T06:53:32;100255.00;;;18.70
22828;BMP180;11580;52.562;13.418;2023-05-10T06:55:59;100254.00;;;18.80
22828;BMP180;11580;52.562;13.418;2023-05-10T06:58:26;100249.00;;;18.80
22828;BMP180;11580;52.562;13.418;2023-05-10T07:00:53;100258.00;;;18.90
22828;BMP180;11580;52.562;13.418;2023-05-10T07:03:21;100247.00;;;19.00
22828;BMP180;11580;52.562;13.418;2023-05-10T07:05:48;100253.00;;;19.00
22828;BMP180;11580;52.562;13.418;2023-05-10T07:08:15;100249.00;;;19.10
22828;BMP180;11580;52.562;13.418;2023-05-10T07:10:43;100260.00;;;19.20
22828;BMP180;11580;52.562;13.418;2023-05-10T07:13:11;100229.00;;;19.20
22828;BMP180;11580;52.562;13.418;2023-05-10T07:15:38;100249.00;;;19.30
22828;BMP180;11580;52.562;13.418;2023-05-10T07:18:05;100248.00;;;19.30
22828;BMP180;11580;52.562;13.418;2023-05-10T07:20:32;100249.00;;;19.40
22828;BMP180;11580;52.562;13.418;2023-05-10T07:22:59;100247.00;;;19.40
22828;BMP180;11580;52.562;13.418;2023-05-10T07:25:27;100250.00;;;19.50
22828;BMP180;11580;52.562;13.418;2023-05-10T07:27:55;100241.00;;;19.50
22828;BMP180;11580;52.562;13.418;2023-05-10T07:30:23;100231.00;;;19.60
22828;BMP180;11580;52.562;13.418;2023-05-10T07:32:50;100251.00;;;19.60
22828;BMP180;11580;52.562;13.418;2023-05-10T07:35:17;100245.00;;;19.60
22828;BMP180;11580;52.562;13.418;2023-05-10T07:37:45;100191.00;;;19.70
22828;BMP180;11580;52.562;13.418;2023-05-10T07:40:12;100260.00;;;19.70
22828;BMP180;11580;52.562;13.418;2023-05-10T07:42:39;100258.00;;;19.80
22828;BMP180;11580;52.562;13.418;2023-05-10T07:45:09;100253.00;;;19.80
22828;BMP180;11580;52.562;13.418;2023-05-10T07:47:36;100248.00;;;19.90
22828;BMP180;11580;52.562;13.418;2023-05-10T07:50:05;100238.00;;;19.90
22828;BMP180;11580;52.562;13.418;2023-05-10T07:52:32;100246.00;;;19.90
22828;BMP180;11580;52.562;13.418;2023-05-10T07:54:59;100238.00;;;20.00
22828;BMP180;11580;52.562;13.418;2023-05-10T07:57:26;100239.00;;;20.00
22828;BMP180;11580;52.562;13.418;2023-05-10T07:59:54;100237.00;;;20.10
22828;BMP180;11580;52.562;13.418;2023-05-10T08:02:22;100246.00;;;20.10
22828;BMP180;11580;52.562;13.418;2023-05-10T08:04:49;100241.00;;;20.20
22828;BMP180;11580;52.562;13.418;2023-05-10T08:07:17;100248.00;;;20.30
22828;BMP180;11580;52.562;13.418;2023-05-10T08:09:44;100258.00;;;20.40
22828;BMP180;11580;52.562;13.418;2023-05-10T08:12:11;100251.00;;;20.40
22828;BMP180;11580;52.562;13.418;2023-05-10T08:14:38;100247.00;;;20.50
22828;BMP180;11580;52.562;13.418;2023-05-10T08:17:06;100256.00;;;20.60
22828;BMP180;11580;52.562;13.418;2023-05-10T08:19:34;100253.00;;;20.60
22828;BMP180;11580;52.562;13.418;2023-05-10T08:22:02;100250.00;;;20.70
22828;BMP180;11580;52.562;13.418;2023-05-10T08:24:29;100238.00;;;20.80
22828;BMP180;11580;52.562;13.418;2023-05-10T08:26:56;100250.00;;;20.80
22828;BMP180;11580;52.562;13.418;2023-05-10T08:29:23;100244.00;;;20.90
22828;BMP180;11580;52.562;13.418;2023-05-10T08:31:50;100240.00;;;20.90
22828;BMP180;11580;52.562;13.418;2023-05-10T08:34:17;100251.00;;;21.00
22828;BMP180;11580;52.562;13.418;2023-05-10T08:36:46;100241.00;;;21.00
22828;BMP180;11580;52.562;13.418;2023-05-10T08:39:13;100260.00;;;21.10
22828;BMP180;11580;52.562;13.418;2023-05-10T08:41:43;100245.00;;;21.10
22828;BMP180;11580;52.562;13.418;2023-05-10T08:44:11;100256.00;;;21.20
22828;BMP180;11580;52.562;13.418;2023-05-10T08:46:41;100255.00;;;21.20
22828;BMP180;11580;52.562;13.418;2023-05-10T08:49:13;100267.00;;;21.30
22828;BMP180;11580;52.562;13.418;2023-05-10T08:51:51;100247.00;;;21.30
22828;BMP180;11580;52.562;13.418;2023-05-10T08:54:19;100256.00;;;21.30
22828;BMP180;11580;52.562;13.418;2023-05-10T08:56:46;100252.00;;;21.40
22828;BMP180;11580;52.562;13.418;2023-05-10T08:59:14;100251.00;;;21.50
22828;BMP180;11580;52.562;13.418;2023-05-10T09:01:43;100254.00;;;21.50
22828;BMP180;11580;52.562;13.418;2023-05-10T09:04:12;100258.00;;;21.50
22828;BMP180;11580;52.562;13.418;2023-05-10T09:06:39;100252.00;;;21.60
22828;BMP180;11580;52.562;13.418;2023-05-10T09:09:08;100252.00;;;21.60
22828;BMP180;11580;52.562;13.418;2023-05-10T09:11:36;100261.00;;;21.70
22828;BMP180;11580;52.562;13.418;2023-05-10T09:14:04;100251.00;;;21.80
22828;BMP180;11580;52.562;13.418;2023-05-10T09:16:31;100249.00;;;21.80
22828;BMP180;11580;52.562;13.418;2023-05-10T09:18:58;100250.00;;;21.90
22828;BMP180;11580;52.562;13.418;2023-05-10T09:21:25;100255.00;;;22.00
22828;BMP180;11580;52.562;13.418;2023-05-10T09:23:53;100262.00;;;22.00
22828;BMP180;11580;52.562;13.418;2023-05-10T09:26:24;100264.00;;;22.10
22828;BMP180;11580;52.562;13.418;2023-05-10T09:28:52;100260.00;;;22.20
22828;BMP180;11580;52.562;13.418;2023-05-10T09:31:20;100257.00;;;22.20
22828;BMP180;11580;52.562;13.418;2023-05-10T09:33:49;100271.00;;;22.30
22828;BMP180;11580;52.562;13.418;2023-05-10T09:36:16;100275.00;;;22.40
22828;BMP180;11580;52.562;13.418;2023-05-10T09:38:48;100273.00;;;22.50
22828;BMP180;11580;52.562;13.418;2023-05-10T09:41:18;100277.00;;;22.50
22828;BMP180;11580;52.562;13.418;2023-05-10T09:43:48;100276.00;;;22.60
22828;BMP180;11580;52.562;13.418;2023-05-10T09:46:16;100270.00;;;22.70
22828;BMP180;11580;52.562;13.418;2023-05-10T09:48:45;100270.00;;;22.70
22828;BMP180;11580;52.562;13.418;2023-05-10T09:51:19;100271.00;;;22.80
22828;BMP180;11580;52.562;13.418;2023-05-10T09:53:47;100268.00;;;22.80
22828;BMP180;11580;52.562;13.418;2023-05-10T09:56:33;100277.00;;;22.90
22828;BMP180;11580;52.562;13.418;2023-05-10T09:59:07;100280.00;;;22.90
22828;BMP180;11580;52.562;13.418;2023-05-10T10:01:35;100282.00;;;23.00
22828;BMP180;11580;52.562;13.418;2023-05-10T10:04:04;100288.00;;;23.00
22828;BMP180;11580;52.562;13.418;2023-05-10T10:06:36;100288.00;;;23.10
22828;BMP180;11580;52.562;13.418;2023-05-10T10:09:05;100278.00;;;23.10
22828;BMP180;11580;52.562;13.418;2023-05-10T10:11:35;100283.00;;;23.20
22828;BMP180;11580;52.562;13.418;2023-05-10T10:14:02;100287.00;;;23.20
22828;BMP180;11580;52.562;13.418;2023-05-10T10:16:32;100277.00;;;23.30
22828;BMP180;11580;52.562;13.418;2023-05-10T10:19:00;100268.00;;;23.30
22828;BMP180;11580;52.562;13.418;2023-05-10T10:21:28;100279.00;;;23.40
22828;BMP180;11580;52.562;13.418;2023-05-10T10:23:55;100279.00;;;23.40
22828;BMP180;11580;52.562;13.418;2023-05-10T10:26:22;100272.00;;;23.40
22828;BMP180;11580;52.562;13.418;2023-05-10T10:29:00;100277.00;;;23.50
22828;BMP180;11580;52.562;13.418;2023-05-10T10:31:40;100274.00;;;23.50
22828;BMP180;11580;52.562;13.418;2023-05-10T10:34:10;100271.00;;;23.60
22828;BMP180;11580;52.562;13.418;2023-05-10T10:36:46;100278.00;;;23.60
22828;BMP180;11580;52.562;13.418;2023-05-10T10:39:15;100272.00;;;23.70
22828;BMP180;11580;52.562;13.418;2023-05-10T10:41:50;100277.00;;;23.70
22828;BMP180;11580;52.562;13.418;2023-05-10T10:44:36;100246.00;;;23.70
22828;BMP180;11580;52.562;13.418;2023-05-10T10:47:22;100266.00;;;23.80
22828;BMP180;11580;52.562;13.418;2023-05-10T10:50:06;100266.00;;;23.80
22828;BMP180;11580;52.562;13.418;2023-05-10T10:52:36;100281.00;;;23.80
22828;BMP180;11580;52.562;13.418;2023-05-10T10:55:06;100280.00;;;23.90
22828;BMP180;11580;52.562;13.418;2023-05-10T10:57:45;100270.00;;;23.90
22828;BMP180;11580;52.562;13.418;2023-05-10T11:00:21;100270.00;;;23.90
22828;BMP180;11580;52.562;13.418;2023-05-10T11:02:53;100270.00;;;24.00
22828;BMP180;11580;52.562;13.418;2023-05-10T11:05:45;100276.00;;;24.00
22828;BMP180;11580;52.562;13.418;2023-05-10T11:08:19;100269.00;;;24.00
22828;BMP180;11580;52.562;13.418;2023-05-10T11:11:03;100266.00;;;24.10
22828;BMP180;11580;52.562;13.418;2023-05-10T11:13:37;100270.00;;;24.10
22828;BMP180;11580;52.562;13.418;2023-05-10T11:16:25;100264.00;;;24.10
22828;BMP180;11580;52.562;13.418;2023-05-10T11:19:01;100267.00;;;24.20
22828;BMP180;11580;52.562;13.418;2023-05-10T11:21:29;100273.00;;;24.20
22828;BMP180;11580;52.562;13.418;2023-05-10T11:23:58;100272.00;;;24.20
22828;BMP180;11580;52.562;13.418;2023-05-10T11:26:32;100275.00;;;24.30
22828;BMP180;11580;52.562;13.418;2023-05-10T11:29:00;100271.00;;;24.30
22828;BMP180;11580;52.562;13.418;2023-05-10T11:31:28;100267.00;;;24.40
22828;BMP180;11580;52.562;13.418;2023-05-10T11:34:00;100257.00;;;24.40
22828;BMP180;11580;52.562;13.418;2023-05-10T11:36:31;100260.00;;;24.50
22828;BMP180;11580;52.562;13.418;2023-05-10T11:38:59;100265.00;;;24.50
22828;BMP180;11580;52.562;13.418;2023-05-10T11:41:30;100258.00;;;24.50
22828;BMP180;11580;52.562;13.418;2023-05-10T11:43:58;100257.00;;;24.60
22828;BMP180;11580;52.562;13.418;2023-05-10T11:46:27;100255.00;;;24.60
22828;BMP180;11580;52.562;13.418;2023-05-10T11:49:00;100257.00;;;24.60
22828;BMP180;11580;52.562;13.418;2023-05-10T11:51:33;100265.00;;;24.70
22828;BMP180;11580;52.562;13.418;2023-05-10T11:54:05;100263.00;;;24.70
22828;BMP180;11580;52.562;13.418;2023-05-10T11:56:33;100261.00;;;24.70
22828;BMP180;11580;52.562;13.418;2023-05-10T11:59:01;100264.00;;;24.80
22828;BMP180;11580;52.562;13.418;2023-05-10T12:01:29;100266.00;;;24.80
22828;BMP180;11580;52.562;13.418;2023-05-10T12:04:00;100278.00;;;24.90
22828;BMP180;11580;52.562;13.418;2023-05-10T12:06:30;100263.00;;;24.90
22828;BMP180;11580;52.562;13.418;2023-05-10T12:08:58;100270.00;;;25.00
22828;BMP180;11580;52.562;13.418;2023-05-10T12:11:26;100276.00;;;25.00
22828;BMP180;11580;52.562;13.418;2023-05-10T12:13:54;100277.00;;;25.10
22828;BMP180;11580;52.562;13.418;2023-05-10T12:16:24;100270.00;;;25.10
22828;BMP180;11580;52.562;13.418;2023-05-10T12:18:54;100274.00;;;25.20
22828;BMP180;11580;52.562;13.418;2023-05-10T12:21:24;100284.00;;;25.20
22828;BMP180;11580;52.562;13.418;2023-05-10T12:23:54;100273.00;;;25.30
22828;BMP180;11580;52.562;13.418;2023-05-10T12:26:22;100286.00;;;25.30
22828;BMP180;11580;52.562;13.418;2023-05-10T12:28:50;100282.00;;;25.30
22828;BMP180;11580;52.562;13.418;2023-05-10T12:31:17;100270.00;;;25.40
22828;BMP180;11580;52.562;13.418;2023-05-10T12:33:45;100283.00;;;25.50
22828;BMP180;11580;52.562;13.418;2023-05-10T12:36:16;100284.00;;;25.50
22828;BMP180;11580;52.562;13.418;2023-05-10T12:38:45;100274.00;;;25.50
22828;BMP180;11580;52.562;13.418;2023-05-10T12:41:16;100280.00;;;25.60
22828;BMP180;11580;52.562;13.418;2023-05-10T12:43:44;100273.00;;;25.60
22828;BMP180;11580;52.562;13.418;2023-05-10T12:46:14;100276.00;;;25.60
22828;BMP180;11580;52.562;13.418;2023-05-10T12:48:43;100288.00;;;25.70
22828;BMP180;11580;52.562;13.418;2023-05-10T12:51:11;100287.00;;;25.70
22828;BMP180;11580;52.562;13.418;2023-05-10T12:53:41;100284.00;;;25.70
22828;BMP180;11580;52.562;13.418;2023-05-10T12:56:10;100285.00;;;25.80
22828;BMP180;11580;52.562;13.418;2023-05-10T12:58:38;100283.00;;;25.70
22828;BMP180;11580;52.562;13.418;2023-05-10T13:01:05;100291.00;;;25.80
22828;BMP180;11580;52.562;13.418;2023-05-10T13:03:33;100286.00;;;25.80
22828;BMP180;11580;52.562;13.418;2023-05-10T13:06:00;100289.00;;;25.90
22828;BMP180;11580;52.562;13.418;2023-05-10T13:08:27;100282.00;;;25.90
22828;BMP180;11580;52.562;13.418;2023-05-10T13:10:59;100283.00;;;25.90
22828;BMP180;11580;52.562;13.418;2023-05-10T13:13:27;100284.00;;;26.00
22828;BMP180;11580;52.562;13.418;2023-05-10T13:15:54;100281.00;;;26.00
22828;BMP180;11580;52.562;13.418;2023-05-10T13:18:22;100270.00;;;26.00
22828;BMP180;11580;52.562;13.418;2023-05-10T13:20:50;100286.00;;;26.00
22828;BMP180;11580;52.562;13.418;2023-05-10T13:23:17;100285.00;;;26.00
22828;BMP180;11580;52.562;13.418;2023-05-10T13:25:44;100275.00;;;26.10
22828;BMP180;11580;52.562;13.418;2023-05-10T13:28:11;100281.00;;;26.10
22828;BMP180;11580;52.562;13.418;2023-05-10T13:30:40;100288.00;;;26.10
22828;BMP180;11580;52.562;13.418;2023-05-10T13:33:07;100278.00;;;26.10
22828;BMP180;11580;52.562;13.418;2023-05-10T13:35:34;100280.00;;;26.10
22828;BMP180;11580;52.562;13.418;2023-05-10T13:38:01;100268.00;;;26.10
22828;BMP180;11580;52.562;13.418;2023-05-10T13:40:28;100274.00;;;26.20
22828;BMP180;11580;52.562;13.418;2023-05-10T13:42:55;100269.00;;;26.20
22828;BMP180;11580;52.562;13.418;2023-05-10T13:45:23;100265.00;;;26.20
22828;BMP180;11580;52.562;13.418;2023-05-10T13:47:51;100278.00;;;26.20
22828;BMP180;11580;52.562;13.418;2023-05-10T13:50:19;100274.00;;;26.20
22828;BMP180;11580;52.562;13.418;2023-05-10T13:52:46;100275.00;;;26.20
22828;BMP180;11580;52.562;13.418;2023-05-10T13:55:13;100273.00;;;26.20
22828;BMP180;11580;52.562;13.418;2023-05-10T13:57:40;100274.00;;;26.20